Time;durP1;ratioP1;P1;durP2;ratioP2;P2;SDS_P1;SDS_P2;PMS_P1;PMS_P2;Temp;Humidity;BMP_temperature;BMP_pressure;BME280_temperature;BME280_humidity;BME280_pressure;Samples;Min_cycle;Max_cycle;Signal;HPM_P1;HPM_P2
2021/11/12 00:15:12;;;;;;;3.60;2.22;;;19.70;66.90;;;;;;6094376;23;20030;-68
2021/11/12 00:17:38;;;;;;;2.70;2.42;;;19.70;66.90;;;;;;6094051;23;20085;-68
2021/11/12 00:20:05;;;;;;;4.85;2.10;;;19.70;66.90;;;;;;6094381;23;20345;-68
2021/11/12 00:22:30;;;;;;;3.28;2.20;;;19.70;66.90;;;;;;6094304;23;20011;-68
2021/11/12 00:24:59;;;;;;;3.67;2.20;;;19.70;66.80;;;;;;6093947;23;20560;-68
2021/11/12 00:27:25;;;;;;;3.15;2.38;;;19.70;66.90;;;;;;6094338;23;20006;-68
2021/11/12 00:32:49;;;;;;;2.83;2.03;;;19.70;66.90;;;;;;6093806;23;20037;-68
2021/11/12 00:40:15;;;;;;;4.15;2.63;;;19.60;66.90;;;;;;6094202;23;20007;-68
2021/11/12 00:43:03;;;;;;;3.03;2.10;;;19.60;66.90;;;;;;6094401;23;20010;-68
2021/11/12 00:45:31;;;;;;;3.65;2.55;;;19.60;67.00;;;;;;6093952;23;20010;-68
2021/11/12 00:55:39;;;;;;;4.45;2.45;;;19.60;67.00;;;;;;6165019;23;20005;-68
2021/11/12 00:58:06;;;;;;;3.13;2.40;;;19.60;67.00;;;;;;6215174;23;19997;-68
2021/11/12 01:00:32;;;;;;;3.03;2.20;;;19.60;67.00;;;;;;6188382;23;20027;-68
2021/11/12 01:02:59;;;;;;;4.50;2.40;;;19.60;67.00;;;;;;6188767;23;20072;-68
2021/11/12 01:05:24;;;;;;;4.78;2.53;;;19.60;67.00;;;;;;6188693;23;20012;-68
2021/11/12 01:07:50;;;;;;;3.92;2.40;;;19.60;67.10;;;;;;6188878;23;20008;-68
2021/11/12 01:10:16;;;;;;;2.90;2.50;;;19.60;67.10;;;;;;6214947;23;20001;-68
2021/11/12 01:12:42;;;;;;;3.70;2.60;;;19.60;67.10;;;;;;6188435;23;20008;-68
2021/11/12 01:15:12;;;;;;;3.78;2.47;;;19.60;67.10;;;;;;6188287;23;20071;-68
2021/11/12 01:17:38;;;;;;;5.10;2.65;;;19.60;67.10;;;;;;6189073;23;20001;-68
2021/11/12 01:20:04;;;;;;;3.58;2.28;;;19.60;67.10;;;;;;6215034;23;20000;-68
2021/11/12 01:22:30;;;;;;;3.47;2.70;;;19.60;67.10;;;;;;6214709;23;20452;-68
2021/11/12 01:24:56;;;;;;;3.85;2.40;;;19.60;67.10;;;;;;6214331;23;20017;-69
2021/11/12 01:27:22;;;;;;;4.78;2.40;;;19.60;67.20;;;;;;6214796;23;20007;-68
2021/11/12 01:29:48;;;;;;;3.70;2.78;;;19.60;67.20;;;;;;6214663;23;20440;-68
2021/11/12 01:32:19;;;;;;;3.13;2.50;;;19.60;67.20;;;;;;6214753;23;20094;-68
2021/11/12 01:34:50;;;;;;;3.33;2.13;;;19.60;67.20;;;;;;6215123;23;20000;-68
2021/11/12 01:37:18;;;;;;;4.30;2.22;;;19.60;67.20;;;;;;6164518;23;20000;-68
2021/11/12 01:39:46;;;;;;;5.63;2.42;;;19.60;67.30;;;;;;6214753;23;20007;-68
2021/11/12 01:42:13;;;;;;;4.60;2.35;;;19.60;67.20;;;;;;6214878;23;20004;-68
2021/11/12 01:44:46;;;;;;;4.45;2.53;;;19.60;67.20;;;;;;6188229;23;20023;-68
2021/11/12 01:47:24;;;;;;;3.42;2.40;;;19.60;67.30;;;;;;6214846;23;20023;-68
2021/11/12 01:49:56;;;;;;;3.40;2.40;;;19.60;67.30;;;;;;6214826;23;20027;-68
2021/11/12 01:59:53;;;;;;;3.97;2.40;;;19.60;67.40;;;;;;6214655;23;20130;-68
2021/11/12 02:02:19;;;;;;;2.92;2.33;;;19.50;67.30;;;;;;6163723;23;20024;-68
2021/11/12 02:04:44;;;;;;;3.65;2.25;;;19.60;68.50;;;;;;6214606;23;20420;-68
2021/11/12 02:07:12;;;;;;;3.78;2.25;;;19.60;67.40;;;;;;6214797;23;20005;-68
2021/11/12 02:09:37;;;;;;;4.72;2.10;;;19.60;67.40;;;;;;6188574;23;19997;-68
2021/11/12 02:12:10;;;;;;;3.60;2.22;;;19.60;67.50;;;;;;6163447;23;20085;-68
2021/11/12 02:14:38;;;;;;;2.75;2.30;;;19.60;67.40;;;;;;6165565;23;20004;-68
2021/11/12 02:17:13;;;;;;;2.78;2.33;;;19.60;67.40;;;;;;6164027;23;20051;-68
2021/11/12 02:19:47;;;;;;;3.40;2.17;;;19.60;67.50;;;;;;6189676;23;20139;-68
2021/11/12 02:22:13;;;;;;;3.30;2.05;;;19.60;67.50;;;;;;6214598;23;20007;-68
2021/11/12 02:24:44;;;;;;;3.85;2.30;;;19.60;67.50;;;;;;6188042;23;20088;-68
2021/11/12 02:27:15;;;;;;;3.42;2.10;;;19.60;67.50;;;;;;6188810;23;20001;-68
2021/11/12 02:29:46;;;;;;;4.03;2.33;;;19.60;67.50;;;;;;6188844;23;20063;-68
2021/11/12 02:32:27;;;;;;;4.10;2.45;;;19.60;67.60;;;;;;6189193;23;20051;-68
2021/11/12 02:34:54;;;;;;;4.18;2.05;;;19.60;67.60;;;;;;6187759;23;20383;-68
2021/11/12 02:37:23;;;;;;;2.22;2.03;;;19.60;67.70;;;;;;6216201;23;20020;-68
2021/11/12 02:39:49;;;;;;;4.20;2.50;;;19.50;67.60;;;;;;6216494;23;20000;-68
2021/11/12 02:42:15;;;;;;;2.67;2.03;;;19.50;67.60;;;;;;6216221;23;20000;-68
2021/11/12 02:44:41;;;;;;;2.85;2.20;;;19.50;67.60;;;;;;6190052;23;20007;-68
2021/11/12 02:47:12;;;;;;;3.28;2.22;;;19.50;67.70;;;;;;6189977;23;20003;-68
2021/11/12 02:49:37;;;;;;;2.97;2.33;;;19.60;67.70;;;;;;6165299;23;20075;-68
2021/11/12 02:52:07;;;;;;;5.32;2.50;;;19.50;67.70;;;;;;6190081;23;20021;-68
2021/11/12 02:54:33;;;;;;;3.67;2.30;;;19.60;67.80;;;;;;6216747;23;20001;-68
2021/11/12 02:57:00;;;;;;;2.63;2.33;;;19.50;67.70;;;;;;6189504;23;20099;-68
2021/11/12 02:59:26;;;;;;;2.58;2.20;;;19.50;67.70;;;;;;6216390;23;20075;-68
2021/11/12 03:01:52;;;;;;;5.05;2.55;;;19.50;67.70;;;;;;6189841;23;19996;-68
2021/11/12 03:04:18;;;;;;;4.25;2.40;;;19.50;67.70;;;;;;6189912;23;20005;-68
2021/11/12 03:06:44;;;;;;;5.32;2.50;;;19.50;67.80;;;;;;6216163;23;20076;-68
2021/11/12 03:09:11;;;;;;;2.38;2.00;;;19.50;67.80;;;;;;6190114;23;20000;-68
2021/11/12 03:11:37;;;;;;;2.70;2.10;;;19.50;67.80;;;;;;6189619;23;20088;-68
2021/11/12 03:14:04;;;;;;;2.53;2.00;;;19.50;67.80;;;;;;6189894;23;20028;-68
2021/11/12 03:16:30;;;;;;;2.47;1.92;;;19.60;67.90;;;;;;6189674;23;20003;-68
2021/11/12 03:18:56;;;;;;;4.28;2.17;;;19.50;67.80;;;;;;6189720;23;19996;-68
2021/11/12 03:21:24;;;;;;;3.63;2.33;;;19.60;67.90;;;;;;6165117;23;19997;-68
2021/11/12 04:02:01;;;;;;;2.05;1.85;;;19.50;68.30;;;;;;6153295;23;20013;-69
2021/11/12 04:18:15;;;;;;;2.38;1.83;;;19.50;68.40;;;;;;6094514;23;20010;-67
2021/11/12 05:09:53;;;;;;;2.20;2.00;;;19.40;68.60;;;;;;6199934;23;20011;-68
2021/11/12 05:12:43;;;;;;;2.83;1.90;;;19.40;68.60;;;;;;6192952;23;20011;-68
2021/11/12 05:26:35;;;;;;;2.50;1.80;;;19.40;68.70;;;;;;6183598;23;20035;-68
2021/11/12 05:46:10;;;;;;;2.80;1.75;;;19.40;68.80;;;;;;6064949;23;20062;-68
2021/11/12 05:56:47;;;;;;;3.28;1.85;;;19.40;68.80;;;;;;6064957;23;20422;-68
2021/11/12 05:59:13;;;;;;;2.83;1.65;;;19.40;68.90;;;;;;6064884;23;20003;-68
2021/11/12 06:01:39;;;;;;;2.28;1.80;;;19.40;68.90;;;;;;6064869;23;20471;-68
2021/11/12 06:04:05;;;;;;;3.75;1.90;;;19.40;68.80;;;;;;6064649;23;20035;-68
2021/11/12 06:06:31;;;;;;;2.33;1.60;;;19.40;68.80;;;;;;6064683;23;20010;-68
2021/11/12 06:08:57;;;;;;;2.17;1.60;;;19.40;68.80;;;;;;6088188;23;20369;-68
2021/11/12 06:11:23;;;;;;;3.00;1.80;;;19.40;68.90;;;;;;6093604;23;20017;-68
2021/11/12 06:13:53;;;;;;;2.53;1.92;;;19.40;68.90;;;;;;6093457;23;20150;-68
2021/11/12 06:16:18;;;;;;;1.95;1.80;;;19.40;68.80;;;;;;6079988;23;20465;-68
2021/11/12 06:18:44;;;;;;;1.60;1.40;;;19.40;68.80;;;;;;6158455;23;20005;-68
2021/11/12 06:21:11;;;;;;;3.53;2.03;;;19.40;68.90;;;;;;6158019;23;20044;-68
2021/11/12 06:23:37;;;;;;;5.40;1.90;;;19.40;68.80;;;;;;6184298;23;20005;-68
2021/11/12 06:26:03;;;;;;;3.42;1.60;;;19.40;68.90;;;;;;6182985;23;20084;-68
2021/11/12 06:28:29;;;;;;;2.08;1.63;;;19.40;68.90;;;;;;6158478;23;20004;-68
2021/11/12 06:30:56;;;;;;;2.03;1.70;;;19.40;68.90;;;;;;6158309;23;20495;-68
2021/11/12 06:33:25;;;;;;;2.33;1.90;;;19.40;68.90;;;;;;6183080;23;20005;-68
2021/11/12 06:35:51;;;;;;;2.13;1.67;;;19.40;68.90;;;;;;6184120;23;20072;-68
2021/11/12 06:38:20;;;;;;;2.55;1.67;;;19.40;68.90;;;;;;6182962;23;20075;-68
2021/11/12 06:40:45;;;;;;;2.95;1.70;;;19.40;69.00;;;;;;6182869;23;20362;-68
2021/11/12 06:43:36;;;;;;;3.15;1.70;;;19.40;68.90;;;;;;6184396;23;20417;-68
2021/11/12 06:51:29;;;;;;;2.00;1.80;;;19.40;69.00;;;;;;6183095;23;20056;-68
2021/11/12 06:53:56;;;;;;;1.52;1.17;;;19.40;69.10;;;;;;6182863;23;20001;-68
2021/11/12 06:56:23;;;;;;;1.98;1.60;;;19.40;69.10;;;;;;6182876;23;20024;-68
2021/11/12 06:58:49;;;;;;;2.33;1.40;;;19.40;69.00;;;;;;6184395;23;20001;-68
2021/11/12 07:01:15;;;;;;;2.05;1.58;;;19.40;69.00;;;;;;6158223;23;20021;-68
2021/11/12 07:03:40;;;;;;;3.47;1.67;;;19.40;69.10;;;;;;6183995;23;20009;-68
2021/11/12 07:06:06;;;;;;;2.42;1.50;;;19.40;69.10;;;;;;6182846;23;20005;-68
2021/11/12 07:08:32;;;;;;;1.70;1.60;;;19.40;69.10;;;;;;6183048;23;20001;-68
2021/11/12 07:10:58;;;;;;;2.17;1.70;;;19.40;70.10;;;;;;6184289;23;20001;-68
2021/11/12 07:13:29;;;;;;;1.50;1.40;;;19.40;69.10;;;;;;6182805;23;20012;-68
2021/11/12 07:15:55;;;;;;;3.00;1.60;;;19.40;69.10;;;;;;6182956;23;20029;-68
2021/11/12 07:18:21;;;;;;;2.05;1.70;;;19.40;69.10;;;;;;6183904;23;20486;-68
2021/11/12 07:20:48;;;;;;;1.70;1.60;;;19.40;69.10;;;;;;6155479;23;20080;-68
2021/11/12 07:23:14;;;;;;;2.42;1.52;;;19.40;69.10;;;;;;6181812;23;20071;-68
2021/11/12 07:25:41;;;;;;;1.60;1.50;;;19.40;69.10;;;;;;6183015;23;20012;-68
2021/11/12 07:28:07;;;;;;;6.28;1.95;;;19.40;69.10;;;;;;6183026;23;20016;-68
2021/11/12 07:30:34;;;;;;;1.85;1.48;;;19.40;69.10;;;;;;6184750;23;20007;-68
2021/11/12 07:33:00;;;;;;;2.45;1.60;;;19.40;69.10;;;;;;6184846;23;20033;-68
2021/11/12 07:35:28;;;;;;;1.92;1.58;;;19.40;69.20;;;;;;6185809;23;19997;-68
2021/11/12 07:37:58;;;;;;;2.00;1.40;;;19.40;69.10;;;;;;6184503;23;20005;-68
2021/11/12 07:40:30;;;;;;;2.42;1.50;;;19.40;69.20;;;;;;6185736;23;20004;-68
2021/11/12 07:45:37;;;;;;;1.63;1.23;;;19.40;69.20;;;;;;6185706;23;20036;-68
2021/11/12 07:48:03;;;;;;;2.53;1.40;;;19.40;69.20;;;;;;6185384;23;20025;-68
2021/11/12 07:50:29;;;;;;;1.98;1.60;;;19.40;69.20;;;;;;6159290;23;20005;-68
2021/11/12 07:52:58;;;;;;;4.93;1.60;;;19.40;69.30;;;;;;6185497;23;20448;-68
2021/11/12 07:55:25;;;;;;;3.58;1.88;;;19.40;69.20;;;;;;6184110;23;20062;-68
2021/11/12 07:57:51;;;;;;;1.60;1.50;;;19.40;69.20;;;;;;6184453;23;20079;-68
2021/11/12 08:00:17;;;;;;;2.40;1.45;;;19.40;69.20;;;;;;6159164;23;20496;-69
2021/11/12 08:02:43;;;;;;;1.80;1.60;;;19.40;70.20;;;;;;6183996;23;20139;-68
2021/11/12 08:05:26;;;;;;;2.80;1.50;;;19.40;69.20;;;;;;6183918;23;20033;-68
2021/11/12 08:07:54;;;;;;;2.05;1.60;;;19.40;69.30;;;;;;6184467;23;20008;-68
2021/11/12 08:10:22;;;;;;;1.60;1.38;;;19.40;69.30;;;;;;6185461;23;20348;-68
2021/11/12 08:13:05;;;;;;;2.95;1.42;;;19.40;69.30;;;;;;6185412;23;20444;-68
2021/11/12 08:16:20;;;;;;;2.55;1.50;;;19.40;69.40;;;;;;6184920;23;20001;-68
2021/11/12 08:24:09;;;;;;;1.58;1.15;;;19.40;69.40;;;;;;6074212;23;20084;-68
2021/11/12 08:29:33;;;;;;;2.33;1.42;;;19.40;69.40;;;;;;6094196;23;20413;-68
2021/11/12 08:45:21;;;;;;;2.65;1.45;;;19.40;69.50;;;;;;6064899;23;20007;-70
2021/11/12 08:47:52;;;;;;;4.90;1.42;;;19.40;69.50;;;;;;6042395;23;20057;-70
2021/11/12 08:50:19;;;;;;;2.05;1.63;;;19.40;69.40;;;;;;6065113;23;20007;-70
2021/11/12 08:52:51;;;;;;;2.50;1.40;;;19.40;69.40;;;;;;6065165;23;20518;-70
2021/11/12 08:55:24;;;;;;;5.43;2.00;;;19.40;69.40;;;;;;6041622;23;20003;-70
2021/11/12 08:57:49;;;;;;;;;;;19.40;69.40;;;;;;6117439;23;20081;-70
2021/11/12 09:00:15;;;;;;;1.90;1.80;;;19.30;69.30;;;;;;6122772;23;19936;-70
2021/11/12 09:02:41;;;;;;;3.05;2.17;;;19.40;69.70;;;;;;6098826;23;20404;-70
2021/11/12 09:05:07;;;;;;;2.42;2.20;;;19.40;69.70;;;;;;6123127;23;20041;-70
2021/11/12 09:07:33;;;;;;;3.10;2.80;;;19.50;69.90;;;;;;6123061;23;20474;-70
2021/11/12 09:09:58;;;;;;;3.00;2.70;;;19.50;69.80;;;;;;6115678;23;20008;-70
2021/11/12 09:12:25;;;;;;;4.60;3.13;;;19.50;69.90;;;;;;6183413;23;20012;-70
2021/11/12 09:14:52;;;;;;;3.72;3.00;;;19.60;70.00;;;;;;6183205;23;20001;-70
2021/11/12 09:17:20;;;;;;;3.80;3.50;;;19.70;70.00;;;;;;6184662;23;20318;-70
2021/11/12 09:19:48;;;;;;;5.13;3.40;;;19.80;70.20;;;;;;6158661;23;20364;-70
2021/11/12 09:22:14;;;;;;;4.65;3.95;;;19.90;70.30;;;;;;6184736;23;19997;-71
2021/11/12 09:24:40;;;;;;;6.22;4.38;;;19.90;70.40;;;;;;6162740;23;20020;-70
2021/11/12 09:27:06;;;;;;;4.30;3.90;;;20.00;70.50;;;;;;6214785;23;20011;-70
2021/11/12 09:29:31;;;;;;;6.20;5.35;;;20.00;70.50;;;;;;6162954;23;20065;-71
2021/11/12 09:31:58;;;;;;;11.70;6.65;;;20.10;70.60;;;;;;6188557;23;20008;-70
2021/11/12 09:34:24;;;;;;;14.95;7.05;;;20.10;70.50;;;;;;6214657;23;20004;-70
2021/11/12 09:36:49;;;;;;;11.45;7.28;;;20.20;70.60;;;;;;6188288;23;20007;-70
2021/11/12 09:39:15;;;;;;;13.00;7.70;;;20.20;70.50;;;;;;6188326;23;20024;-70
2021/11/12 09:41:42;;;;;;;13.68;7.13;;;20.20;70.60;;;;;;6214590;23;20004;-71
2021/11/12 09:44:08;;;;;;;12.82;6.97;;;20.20;70.70;;;;;;6163582;23;20005;-70
2021/11/12 09:46:35;;;;;;;13.15;8.13;;;20.20;70.60;;;;;;6186424;23;20431;-68
2021/11/12 09:49:03;;;;;;;10.48;7.25;;;20.20;71.00;;;;;;6163233;23;20044;-68
2021/11/12 09:51:28;;;;;;;14.32;8.30;;;20.20;71.00;;;;;;6163757;23;20008;-67
2021/11/12 09:53:54;;;;;;;14.18;9.00;;;20.20;71.20;;;;;;6214452;23;20005;-67
2021/11/12 09:56:20;;;;;;;17.15;8.88;;;20.30;71.40;;;;;;6187829;23;20004;-67
2021/11/12 09:58:47;;;;;;;12.52;8.68;;;20.30;71.60;;;;;;6187556;23;20092;-67
2021/11/12 10:01:13;;;;;;;14.93;8.77;;;20.30;71.70;;;;;;6163272;23;20059;-67
2021/11/12 10:03:47;;;;;;;12.98;8.20;;;20.30;71.60;;;;;;6214145;23;20004;-66
2021/11/12 10:06:24;;;;;;;16.50;8.88;;;20.30;71.60;;;;;;6214525;23;20008;-67
2021/11/12 10:08:50;;;;;;;13.10;8.13;;;20.40;71.60;;;;;;6214478;23;20031;-67
2021/11/12 10:11:24;;;;;;;11.82;7.70;;;20.30;71.70;;;;;;6214434;23;20000;-67
2021/11/12 10:13:59;;;;;;;14.10;8.35;;;20.40;71.80;;;;;;6187674;23;20436;-67
2021/11/12 10:16:35;;;;;;;12.63;7.97;;;20.30;71.60;;;;;;6166479;23;20008;-67
2021/11/12 10:19:12;;;;;;;11.43;7.50;;;20.40;71.70;;;;;;6214270;23;20416;-67
2021/11/12 10:21:40;;;;;;;12.52;8.02;;;20.40;71.70;;;;;;6213623;23;20000;-67
2021/11/12 10:24:15;;;;;;;10.48;7.03;;;20.40;71.70;;;;;;6214199;23;20079;-67
2021/11/12 10:26:42;;;;;;;10.77;7.25;;;20.40;71.70;;;;;;6187906;23;20463;-67
2021/11/12 10:29:11;;;;;;;10.35;6.88;;;20.40;71.70;;;;;;6163262;23;20004;-67
2021/11/12 10:31:42;;;;;;;11.68;7.30;;;20.40;71.70;;;;;;6163140;23;20009;-67
2021/11/12 10:34:16;;;;;;;12.00;6.93;;;20.40;71.60;;;;;;6187933;23;20007;-71
2021/11/12 10:36:56;;;;;;;10.90;7.07;;;20.40;71.50;;;;;;6137843;23;20007;-69
2021/11/12 10:39:38;;;;;;;10.68;6.35;;;20.50;71.50;;;;;;6189828;23;19997;-71
2021/11/12 10:42:06;;;;;;;11.40;6.75;;;20.40;71.50;;;;;;6214239;23;20001;-72
2021/11/12 10:44:33;;;;;;;10.40;6.15;;;20.40;71.50;;;;;;6163440;23;20011;-71
2021/11/12 10:47:04;;;;;;;9.82;6.78;;;20.40;71.40;;;;;;6188294;23;20000;-72
2021/11/12 10:49:32;;;;;;;10.23;6.65;;;20.50;71.40;;;;;;6187832;23;20000;-72
2021/11/12 10:52:05;;;;;;;13.50;7.05;;;20.50;71.50;;;;;;6188666;23;20005;-67
2021/11/12 10:54:39;;;;;;;9.82;6.10;;;20.50;71.30;;;;;;6214412;23;20004;-67
2021/11/12 10:57:06;;;;;;;9.75;6.60;;;20.50;71.40;;;;;;6188371;23;20001;-67
2021/11/12 10:59:34;;;;;;;8.02;6.20;;;20.50;71.30;;;;;;6164337;23;20068;-68
2021/11/12 11:01:59;;;;;;;8.05;5.97;;;20.50;71.30;;;;;;6165277;23;20000;-68
2021/11/12 11:04:26;;;;;;;9.32;5.78;;;20.50;71.30;;;;;;6189462;23;20325;-67
2021/11/12 11:06:52;;;;;;;7.32;5.75;;;20.50;71.20;;;;;;6189829;23;20331;-67
2021/11/12 11:09:19;;;;;;;8.98;5.65;;;20.50;71.20;;;;;;6216155;23;20035;-67
2021/11/12 11:11:47;;;;;;;8.77;5.60;;;20.60;71.20;;;;;;6188891;23;20008;-67
2021/11/12 11:14:29;;;;;;;7.63;5.47;;;20.60;71.10;;;;;;6189979;23;20079;-67
2021/11/12 11:17:27;;;;;;;9.05;5.82;;;20.60;70.80;;;;;;6189303;23;20001;-67
2021/11/12 11:19:53;;;;;;;9.82;5.88;;;20.60;70.80;;;;;;6215659;23;20005;-68
2021/11/12 11:22:19;;;;;;;8.00;5.03;;;20.50;71.00;;;;;;6189456;23;20071;-67
2021/11/12 11:24:48;;;;;;;8.65;5.18;;;20.60;71.00;;;;;;6188662;23;20046;-68
2021/11/12 11:27:14;;;;;;;8.48;5.22;;;20.60;70.90;;;;;;6164926;23;20004;-67
2021/11/12 11:29:40;;;;;;;8.23;4.55;;;20.60;70.90;;;;;;6215380;23;20008;-67
2021/11/12 11:32:06;;;;;;;8.05;4.85;;;20.60;70.80;;;;;;6189323;23;20078;-68
2021/11/12 11:34:32;;;;;;;7.88;4.90;;;20.60;70.70;;;;;;6189347;23;20015;-68
2021/11/12 11:37:03;;;;;;;7.70;4.65;;;20.60;70.60;;;;;;6164295;23;20000;-69
2021/11/12 11:39:28;;;;;;;6.22;4.75;;;20.60;70.50;;;;;;6164952;23;20003;-70
2021/11/12 11:41:54;;;;;;;7.57;4.80;;;20.60;70.40;;;;;;6164194;23;20096;-69
2021/11/12 11:44:20;;;;;;;7.68;4.65;;;20.60;70.40;;;;;;6189324;23;20443;-68
2021/11/12 11:46:49;;;;;;;6.70;4.53;;;20.70;70.30;;;;;;6164317;23;20011;-68
2021/11/12 11:49:17;;;;;;;5.72;3.95;;;20.60;70.30;;;;;;6165077;23;20340;-76
2021/11/12 11:51:50;;;;;;;7.65;4.45;;;20.60;70.20;;;;;;6188103;23;20355;-72
2021/11/12 11:54:16;;;;;;;6.43;4.10;;;20.70;70.20;;;;;;6213993;23;20079;-71
2021/11/12 11:56:42;;;;;;;7.93;4.38;;;20.60;70.20;;;;;;6163250;23;20021;-71
2021/11/12 11:59:10;;;;;;;5.15;4.30;;;20.60;70.00;;;;;;6188314;23;20056;-71
2021/11/12 12:01:44;;;;;;;5.75;3.75;;;20.60;70.10;;;;;;6188433;23;20008;-71
2021/11/12 12:04:13;;;;;;;5.97;3.92;;;20.60;70.00;;;;;;6164913;23;20071;-71
2021/11/12 12:06:39;;;;;;;7.72;3.95;;;20.60;70.00;;;;;;6214865;23;20000;-71
2021/11/12 12:09:07;;;;;;;6.72;3.90;;;20.60;70.00;;;;;;6163578;23;20004;-71
2021/11/12 12:11:40;;;;;;;6.22;3.38;;;20.60;70.00;;;;;;6164752;23;20001;-71
2021/11/12 12:14:23;;;;;;;5.05;3.40;;;20.60;69.80;;;;;;6164567;23;20007;-71
2021/11/12 12:17:19;;;;;;;6.10;3.47;;;20.60;69.60;;;;;;6188544;23;19997;-71
2021/11/12 13:25:39;;;;;;;5.05;2.50;;;20.30;69.20;;;;;;6093338;23;20109;-69
2021/11/12 13:28:22;;;;;;;6.82;2.45;;;20.20;69.20;;;;;;6070598;23;20366;-69
2021/11/12 13:30:56;;;;;;;4.32;2.00;;;20.20;69.30;;;;;;6093489;23;20014;-69
2021/11/12 13:33:27;;;;;;;4.43;2.40;;;20.20;69.20;;;;;;6087683;23;20016;-69
2021/11/12 13:35:52;;;;;;;3.70;2.20;;;20.20;69.20;;;;;;6184172;23;20084;-69
2021/11/12 13:38:18;;;;;;;5.75;2.40;;;20.20;69.10;;;;;;6182764;23;20409;-70
2021/11/12 13:40:44;;;;;;;4.28;2.25;;;20.20;69.10;;;;;;6184535;23;20437;-70
2021/11/12 13:43:10;;;;;;;7.45;2.45;;;20.20;69.10;;;;;;6182829;23;20001;-69
2021/11/12 13:45:35;;;;;;;4.85;2.00;;;20.20;69.10;;;;;;6183101;23;20005;-70
2021/11/12 13:48:13;;;;;;;3.25;1.90;;;20.20;69.10;;;;;;6184187;23;20005;-70
2021/11/12 13:50:50;;;;;;;4.88;2.28;;;20.30;68.80;;;;;;6182747;23;20001;-72
2021/11/12 13:53:16;;;;;;;5.88;2.55;;;20.30;69.10;;;;;;6182699;23;20009;-69
2021/11/12 13:55:42;;;;;;;7.20;2.50;;;20.20;69.10;;;;;;6158191;23;20051;-70
2021/11/12 13:58:08;;;;;;;5.82;2.53;;;20.30;69.10;;;;;;6183278;23;20080;-71
2021/11/12 14:00:34;;;;;;;8.05;2.88;;;20.30;69.20;;;;;;6185229;23;20024;-71
2021/11/12 14:03:06;;;;;;;5.28;2.50;;;20.30;69.10;;;;;;6158794;23;20001;-71
2021/11/12 14:05:33;;;;;;;5.43;2.65;;;20.40;70.20;;;;;;6183030;23;20064;-69
2021/11/12 14:08:00;;;;;;;6.57;2.30;;;20.40;69.20;;;;;;6183405;23;20008;-70
2021/11/12 14:10:38;;;;;;;5.80;2.47;;;20.40;69.10;;;;;;6183587;23;20005;-70
2021/11/12 14:13:06;;;;;;;8.77;2.42;;;20.40;69.10;;;;;;6184908;23;20005;-70
2021/11/12 14:15:42;;;;;;;4.72;2.40;;;20.50;69.30;;;;;;6183686;23;20023;-75
2021/11/12 14:29:18;;;;;;;6.85;2.50;;;20.50;69.00;;;;;;6158585;23;20083;-71
2021/11/12 14:34:42;;;;;;;5.47;2.92;;;20.50;69.00;;;;;;6185622;23;20518;-73
2021/11/12 14:39:45;;;;;;;6.50;2.50;;;20.60;68.90;;;;;;6186588;23;20001;-69
2021/11/12 14:45:23;;;;;;;5.32;2.78;;;20.60;68.90;;;;;;6162928;23;20043;-67
2021/11/12 14:51:07;;;;;;;15.40;4.30;;;20.60;68.20;;;;;;6095352;23;20006;-67
2021/11/12 14:58:57;;;;;;;50.28;20.40;;;20.20;67.10;;;;;;6095510;23;20086;-67
2021/11/12 15:01:24;;;;;;;57.97;20.35;;;20.10;66.80;;;;;;6095282;23;20122;-67
2021/11/12 15:03:51;;;;;;;55.10;19.13;;;20.00;67.00;;;;;;6095214;23;20014;-67
2021/11/12 15:06:19;;;;;;;53.45;18.98;;;19.90;66.70;;;;;;6095055;23;20438;-67
2021/11/12 15:11:18;;;;;;;47.05;16.52;;;19.80;66.50;;;;;;6095103;23;20010;-67
2021/11/12 15:13:46;;;;;;;46.95;16.63;;;19.80;66.50;;;;;;6095127;23;20010;-67
2021/11/12 15:16:21;;;;;;;48.75;14.63;;;19.70;66.40;;;;;;6094834;23;20537;-67
2021/11/12 15:18:47;;;;;;;34.40;12.00;;;19.70;66.00;;;;;;6095165;23;20010;-67
2021/11/12 15:21:28;;;;;;;32.85;11.13;;;19.60;65.70;;;;;;6095314;23;20007;-67
2021/11/12 15:24:10;;;;;;;35.50;11.32;;;19.60;65.70;;;;;;6095601;23;20013;-67
2021/11/12 15:29:14;;;;;;;35.22;10.15;;;19.50;65.80;;;;;;6185063;23;20009;-67
2021/11/12 15:34:13;;;;;;;33.27;10.17;;;19.40;65.60;;;;;;6160457;23;20008;-67
2021/11/12 15:36:45;;;;;;;30.75;9.15;;;19.30;65.30;;;;;;6158290;23;20072;-67
2021/11/12 15:39:15;;;;;;;29.73;8.35;;;19.30;65.30;;;;;;6183178;23;20460;-67
2021/11/12 15:44:19;;;;;;;26.67;8.02;;;19.30;65.20;;;;;;6183171;23;20090;-67
2021/11/12 15:46:48;;;;;;;32.47;8.80;;;19.20;65.10;;;;;;6182860;23;20011;-66
2021/11/12 15:49:18;;;;;;;24.17;7.15;;;19.30;65.20;;;;;;6184638;23;20011;-66
2021/11/12 15:51:50;;;;;;;21.77;7.40;;;19.30;65.10;;;;;;6184519;23;20084;-66
2021/11/12 16:15:15;;;;;;;23.77;6.15;;;19.00;64.60;;;;;;6092868;23;20030;-67
2021/11/12 16:25:32;;;;;;;18.75;5.53;;;18.90;64.60;;;;;;6070206;23;20019;-66
2021/11/12 16:28:01;;;;;;;19.63;6.30;;;19.00;64.80;;;;;;6068811;23;20006;-66
2021/11/12 16:30:33;;;;;;;22.65;6.25;;;19.00;64.50;;;;;;6088601;23;20017;-65
2021/11/12 16:33:01;;;;;;;19.50;5.82;;;19.00;64.60;;;;;;6069662;23;20003;-66
2021/11/12 16:35:28;;;;;;;18.60;5.38;;;19.00;64.40;;;;;;6068080;23;20016;-66
2021/11/12 16:37:57;;;;;;;20.02;4.82;;;19.00;64.60;;;;;;6068297;23;20059;-66
2021/11/12 16:40:30;;;;;;;21.13;4.93;;;19.00;64.70;;;;;;6068332;23;20036;-66
2021/11/12 16:43:05;;;;;;;22.60;5.32;;;19.00;64.70;;;;;;6175198;23;20001;-66
2021/11/12 16:48:32;;;;;;;19.33;5.00;;;19.00;64.50;;;;;;6190736;23;20028;-66
2021/11/12 16:59:16;;;;;;;23.10;5.18;;;19.00;64.50;;;;;;6193197;23;20005;-66
2021/11/12 17:04:34;;;;;;;15.98;4.55;;;19.00;64.50;;;;;;6189055;23;20040;-66
2021/11/12 17:09:44;;;;;;;20.48;5.18;;;19.00;64.50;;;;;;6183112;23;20012;-66
2021/11/12 17:17:32;;;;;;;24.67;5.68;;;18.90;64.00;;;;;;6181950;23;20008;-66
2021/11/12 17:20:10;;;;;;;21.40;5.30;;;18.90;64.00;;;;;;6183160;23;20001;-66
2021/11/12 17:47:13;;;;;;;23.67;5.28;;;18.70;64.00;;;;;;6182846;23;20040;-66
2021/11/12 17:52:19;;;;;;;21.58;5.15;;;18.60;63.80;;;;;;6182730;23;20009;-66
2021/11/12 18:05:26;;;;;;;19.15;4.45;;;18.60;63.80;;;;;;6181962;23;20001;-71
2021/11/12 18:13:13;;;;;;;18.20;4.47;;;18.70;64.40;;;;;;6182855;23;20001;-72
2021/11/12 21:48:16;;;;;;;7.47;2.28;;;19.70;65.30;;;;;;6153762;23;20015;-69
2021/11/12 21:50:42;;;;;;;6.00;2.05;;;19.70;65.30;;;;;;6153666;23;20002;-69
2021/11/12 21:53:08;;;;;;;4.97;2.13;;;19.70;65.30;;;;;;6155394;23;20413;-69
2021/11/12 21:55:33;;;;;;;7.35;2.40;;;19.70;65.30;;;;;;6153977;23;20087;-69
2021/11/12 21:58:00;;;;;;;7.05;2.38;;;19.70;65.30;;;;;;6153817;23;20033;-69
2021/11/12 22:00:27;;;;;;;6.30;2.30;;;19.70;65.30;;;;;;6155138;23;20028;-69
2021/11/12 22:02:53;;;;;;;6.00;2.20;;;19.70;65.30;;;;;;6153342;23;20009;-69
2021/11/12 22:05:18;;;;;;;7.53;2.40;;;19.70;65.30;;;;;;6153780;23;20076;-69
2021/11/12 22:07:44;;;;;;;6.28;2.22;;;19.70;65.30;;;;;;6155457;23;20477;-69
2021/11/12 22:10:09;;;;;;;4.68;1.80;;;19.70;65.30;;;;;;6155317;23;20025;-69
2021/11/12 22:12:35;;;;;;;4.65;1.75;;;19.70;65.40;;;;;;6155139;23;20177;-69
2021/11/12 22:15:01;;;;;;;4.78;1.83;;;19.70;65.40;;;;;;6153529;23;20085;-69
2021/11/12 22:17:26;;;;;;;5.35;2.35;;;19.70;65.40;;;;;;6128435;23;20060;-69
2021/11/12 22:19:52;;;;;;;5.28;1.75;;;19.70;65.40;;;;;;6153590;23;20033;-69
2021/11/12 22:22:18;;;;;;;4.47;1.70;;;19.70;65.40;;;;;;6153409;23;20001;-69
2021/11/12 22:24:43;;;;;;;4.50;1.63;;;19.70;65.40;;;;;;6163019;23;20008;-69
2021/11/12 22:27:09;;;;;;;5.45;1.80;;;19.70;65.50;;;;;;6163623;23;20000;-69
2021/11/12 22:29:34;;;;;;;5.55;2.10;;;19.70;65.40;;;;;;6187576;23;20004;-69
2021/11/12 22:32:01;;;;;;;6.68;2.30;;;19.70;65.50;;;;;;6188300;23;20005;-69
2021/11/12 22:34:26;;;;;;;6.55;2.20;;;19.60;65.40;;;;;;6214461;23;20004;-69
2021/11/12 22:36:52;;;;;;;7.07;2.17;;;19.70;65.50;;;;;;6214719;23;20344;-69
2021/11/12 22:39:19;;;;;;;4.55;1.73;;;19.70;65.50;;;;;;6188363;23;20339;-69
2021/11/12 22:41:45;;;;;;;5.78;1.80;;;19.70;65.50;;;;;;6214191;23;20058;-69
2021/11/12 22:44:17;;;;;;;4.18;1.70;;;19.70;65.50;;;;;;6161901;23;20015;-71
2021/11/12 22:46:43;;;;;;;5.60;2.00;;;19.70;65.50;;;;;;6186898;23;20448;-71
2021/11/12 22:49:09;;;;;;;4.55;1.67;;;19.70;65.50;;;;;;6188507;23;20000;-71
2021/11/12 22:51:34;;;;;;;3.50;1.60;;;19.60;65.50;;;;;;6188416;23;20051;-71
2021/11/12 22:54:00;;;;;;;5.65;1.73;;;19.60;65.50;;;;;;6215973;23;20371;-71
2021/11/12 22:56:26;;;;;;;4.15;1.70;;;19.70;65.60;;;;;;6190433;23;20027;-71
2021/11/12 22:58:52;;;;;;;4.93;2.10;;;19.70;65.60;;;;;;6190412;23;20000;-71
2021/11/12 23:01:20;;;;;;;5.35;1.80;;;19.60;65.50;;;;;;6190031;23;20333;-71
2021/11/12 23:03:45;;;;;;;4.68;1.50;;;19.60;65.60;;;;;;6190423;23;20005;-71
2021/11/12 23:06:11;;;;;;;4.90;1.73;;;19.60;65.60;;;;;;6190547;23;20008;-71
2021/11/12 23:08:37;;;;;;;4.10;1.75;;;19.60;65.60;;;;;;6190651;23;20010;-71